Big Bend National Park, TX

9:11 AM CDT on August 30, 2014 (GMT -0500)
Terlingua/Study Butte | Change Station
CLOSE
Current Station
Personal Weather Station
Location: Terlingua, TX
Elevation: 2552 ft
Nearby Weather Stations

Elev 2552 ft 29.33 °N, 103.54 °W | Updated 4 seconds ago

Clear
Clear
81.9 °F
Feels Like 83 °F
N
1.1
Wind Variable Wind from WNW
Gusts 2.0 mph

Today
High -- | Low -- °F
--% Chance of Precip.
Yesterday
High -- | Low -- °F
Precip. -- in
7:29 AM 8:16 PM
Waxing Crescent, 22% visible
Pressure 30.02 in
Visibility 10.0 miles
Clouds Clear
Heat Index 83 °F
Dew Point 64 °F
Humidity 55%
Rainfall 0.00 in
Snow Depth Not available.
UV 1.5 out of 12
Pollen 9.40 out of 12
Air Quality Not available.
Flu Activity Not available.
METAR KPRS 301355Z AUTO 05008KT 10SM CLR 27/17 A3002 RMK AO2 T02740171

More Conditions Fewer Conditions

Pressure 30.02 in
Visibility 10.0 miles
Clouds Clear
Heat Index 83 °F
Dew Point 64 °F
Humidity 55%
Rainfall 0.00 in
Snow Depth Not available.
UV 1.5 out of 12
Pollen 9.40 out of 12
Air Quality Not available.
Flu Activity Not available.
METAR KPRS 301355Z AUTO 05008KT 10SM CLR 27/17 A3002 RMK AO2 T02740171

More Conditions Fewer Conditions

10-Day Weather Forecast

Almanac

Astronomy

Aug. 30, 2014 Rise Set
Actual Time 7:29 AM CDT 8:16 PM CDT
Civil Twilight 7:05 AM CDT 8:41 PM CDT
Nautical Twilight 6:36 AM CDT 9:09 PM CDT
Astronomical Twilight 6:07 AM CDT 9:38 PM CDT
Moon 11:54 AM CDT 11:18 PM CDT
Length of Visible Light 13h 36m
Length of Day
12h 47m
Tomorrow will be 1m 41s shorter.
Waxing Crescent, 22% of the Moon is Illuminated
Today
Waxing Crescent
Sep 2
First Quarter
Sep 8
Full
Sep 15
Last Quarter
Sep 24
New

Today's Extremes

State Highs State Lows

Community

WunderPhotos

Upload Photos

1,748,516 photos uploaded!

WunderBlogs® & News

By Dr. Jeff Masters
Director of Meteorology, Weather Underground
By Kari Strenfel
Meteorologist, Weather Underground
By Christopher C. Burt
Weather Historian, Weather Underground
August 30, 2014
August 30, 2014
August 30, 2014

Nearby

Snow Depth

Station Depth Elevation
No new snow has been reported.

Earthquake Activity

City Distance Mag. Time & Date
No recent earthquake activity has been reported nearby.
Minimum magnitude displayed is 2.5.

Coastal Water Temperatures

Place Temperature
No Stations Reporting

Nearby Weather Stations